createdAt,value
2023-03-19T00:00:56.250Z,101295.56
2023-03-19T00:03:24.088Z,101324.69
2023-03-19T00:05:53.246Z,101353.25
2023-03-19T00:08:21.298Z,101385.47
2023-03-19T00:10:49.078Z,101407.06
2023-03-19T00:13:18.754Z,101418.97
2023-03-19T00:15:47.181Z,101444.38
2023-03-19T00:18:16.126Z,101452.25
2023-03-19T00:20:44.287Z,101464.72
2023-03-19T00:23:12.198Z,101491.53
2023-03-19T00:25:40.106Z,101507.41
2023-03-19T00:28:08.010Z,101530.66
2023-03-19T00:30:37.727Z,101558.97
2023-03-19T00:33:05.690Z,101570.91
2023-03-19T00:35:34.105Z,101582.31
2023-03-19T00:38:02.172Z,101594.63
2023-03-19T00:40:33.512Z,101615.41
2023-03-19T00:43:01.489Z,101641.38
2023-03-19T00:45:30.865Z,101683.66
2023-03-19T00:48:00.300Z,101716.25
2023-03-19T00:50:28.304Z,101756.53
2023-03-19T00:52:57.210Z,101812.25
2023-03-19T00:55:25.636Z,101835.00
2023-03-19T00:57:53.561Z,101851.38
2023-03-19T01:00:22.414Z,101850.69
2023-03-19T01:02:50.714Z,101868.91
2023-03-19T01:05:20.046Z,101857.94
2023-03-19T01:07:47.957Z,101893.25
2023-03-19T01:10:16.777Z,101916.84
2023-03-19T01:12:44.595Z,101921.47
2023-03-19T01:15:13.957Z,101975.91
2023-03-19T01:17:42.375Z,101979.50
2023-03-19T01:20:13.250Z,101997.50
2023-03-19T01:22:43.678Z,101985.91
2023-03-19T01:25:13.483Z,101959.00
2023-03-19T01:27:48.398Z,101919.47
2023-03-19T01:30:17.145Z,101863.63
2023-03-19T01:33:11.143Z,101785.41
2023-03-19T01:36:02.534Z,101677.53
2023-03-19T01:38:37.348Z,101629.22
2023-03-19T01:41:08.702Z,101574.38
2023-03-19T01:43:37.463Z,101531.28
2023-03-19T01:46:23.219Z,101486.31
2023-03-19T01:49:14.854Z,101446.09
2023-03-19T01:51:48.843Z,101417.41
2023-03-19T01:54:39.100Z,101400.13
2023-03-19T01:57:31.131Z,101389.19
2023-03-19T02:00:16.715Z,101380.34
2023-03-19T02:02:48.472Z,101356.88
2023-03-19T02:05:36.425Z,101350.47
2023-03-19T02:08:10.377Z,101361.25
2023-03-19T02:10:41.575Z,101357.47
2023-03-19T02:13:09.589Z,101352.38
2023-03-19T02:15:37.431Z,101363.56
2023-03-19T02:18:06.129Z,101359.97
2023-03-19T02:20:40.727Z,101374.09
2023-03-19T02:23:15.670Z,101385.13
2023-03-19T02:26:07.356Z,101375.53
2023-03-19T02:28:37.838Z,101377.75
2023-03-19T02:31:06.946Z,101473.81
2023-03-19T02:33:35.325Z,101469.44
2023-03-19T02:36:06.369Z,101490.78
2023-03-19T02:38:35.914Z,101492.91
2023-03-19T02:41:08.353Z,101475.31
2023-03-19T02:43:38.676Z,101488.44
2023-03-19T02:46:10.410Z,101500.03
2023-03-19T02:48:38.360Z,101492.91
2023-03-19T02:51:06.878Z,101478.19
2023-03-19T02:53:35.244Z,101468.47
2023-03-19T02:56:03.317Z,101449.31
2023-03-19T02:58:32.453Z,101411.63
2023-03-19T03:01:00.474Z,101375.53
2023-03-19T03:03:28.602Z,101339.81
2023-03-19T03:05:56.368Z,101311.28
2023-03-19T03:08:24.080Z,101281.63
2023-03-19T03:10:51.965Z,101240.56
2023-03-19T03:13:20.064Z,101211.22
2023-03-19T03:15:49.216Z,101182.06
2023-03-19T03:18:17.260Z,101143.38
2023-03-19T03:20:45.188Z,101110.22
2023-03-19T03:23:13.802Z,101072.28
2023-03-19T03:25:42.124Z,101063.00
2023-03-19T03:28:10.579Z,101017.66
2023-03-19T03:30:38.526Z,100998.97
2023-03-19T03:33:08.673Z,100979.91
2023-03-19T03:35:37.112Z,100953.28
2023-03-19T03:38:05.322Z,100949.13
2023-03-19T03:40:33.799Z,100930.25
2023-03-19T03:43:02.436Z,100924.84
2023-03-19T03:45:31.544Z,100914.75
2023-03-19T03:47:59.545Z,100900.84
2023-03-19T03:50:29.192Z,100899.44
2023-03-19T03:53:01.128Z,100886.31
2023-03-19T03:55:29.263Z,100879.00
2023-03-19T03:57:57.505Z,100877.63
2023-03-19T04:00:26.738Z,100880.91
2023-03-19T04:02:54.754Z,100876.91
2023-03-19T04:05:22.749Z,100861.97
2023-03-19T04:07:54.228Z,100858.75
2023-03-19T04:10:22.666Z,100859.19
2023-03-19T04:12:50.602Z,100851.50
2023-03-19T04:15:19.294Z,100839.16
2023-03-19T04:17:48.902Z,100836.63
2023-03-19T04:20:18.725Z,100840.97
2023-03-19T04:22:47.349Z,100836.56
2023-03-19T04:25:16.952Z,100838.81
2023-03-19T04:27:44.996Z,100830.09
2023-03-19T04:30:14.230Z,100821.50
2023-03-19T04:32:44.372Z,100822.00
2023-03-19T04:35:12.774Z,100832.41
2023-03-19T04:37:40.848Z,100838.19
2023-03-19T04:40:10.931Z,100838.28
2023-03-19T04:42:41.445Z,100845.50
2023-03-19T04:45:14.643Z,100858.81
2023-03-19T04:47:43.740Z,100870.16
2023-03-19T04:50:12.930Z,100872.09
2023-03-19T04:52:42.585Z,100869.19
2023-03-19T04:55:13.194Z,100881.94
2023-03-19T04:57:58.437Z,100891.81
2023-03-19T05:00:30.598Z,100900.59
2023-03-19T05:02:59.420Z,100895.44
2023-03-19T05:05:28.799Z,100896.25
2023-03-19T05:07:57.401Z,100896.38
2023-03-19T05:10:26.228Z,100896.59
2023-03-19T05:12:54.533Z,100909.28
2023-03-19T05:15:24.201Z,100907.38
2023-03-19T05:17:59.916Z,100914.97
2023-03-19T05:20:34.308Z,100924.63
2023-03-19T05:23:07.542Z,100912.19
2023-03-19T05:25:49.263Z,100908.06
2023-03-19T05:28:23.166Z,100896.25
2023-03-19T05:30:52.451Z,100903.19
2023-03-19T05:33:25.262Z,100887.03
2023-03-19T05:35:55.468Z,100889.97
2023-03-19T05:38:44.940Z,100887.53
2023-03-19T05:41:19.257Z,100879.97
2023-03-19T05:43:58.261Z,100869.31
2023-03-19T05:47:02.973Z,100878.41
2023-03-19T05:49:34.635Z,100887.38
2023-03-19T05:52:05.067Z,100905.28
2023-03-19T05:54:33.419Z,100922.34
2023-03-19T05:57:16.476Z,100930.84
2023-03-19T05:59:56.442Z,100949.47
2023-03-19T06:02:28.819Z,100981.88
2023-03-19T06:05:12.691Z,101014.78
2023-03-19T06:07:40.602Z,101047.31
2023-03-19T06:10:14.603Z,101106.56
2023-03-19T06:12:42.634Z,101150.59
2023-03-19T06:15:33.858Z,101193.34
2023-03-19T06:18:24.806Z,101241.63
2023-03-19T06:20:52.910Z,101288.88
2023-03-19T06:23:21.201Z,101302.47
2023-03-19T06:25:49.668Z,101340.09
2023-03-19T06:28:18.486Z,101367.47
2023-03-19T06:30:46.990Z,101395.16
2023-03-19T06:33:42.254Z,101440.84
2023-03-19T06:36:10.825Z,101475.13
2023-03-19T06:38:38.979Z,101543.53
2023-03-19T06:41:07.044Z,101610.00
2023-03-19T06:43:36.939Z,101677.47
2023-03-19T06:46:05.294Z,101737.56
2023-03-19T06:48:33.339Z,101804.28
2023-03-19T06:51:02.467Z,101738.63
2023-03-19T06:53:30.449Z,101811.50
2023-03-19T06:55:58.251Z,101896.53
2023-03-19T06:58:27.040Z,101977.47
2023-03-19T07:00:54.988Z,102062.88
2023-03-19T07:03:23.247Z,102092.72
2023-03-19T07:05:52.239Z,102129.72
2023-03-19T07:08:21.646Z,102201.28
2023-03-19T07:10:49.466Z,102265.47
2023-03-19T07:13:17.230Z,102293.19
2023-03-19T07:15:45.384Z,102387.53
2023-03-19T07:18:13.209Z,102424.50
2023-03-19T07:20:41.166Z,102470.81
2023-03-19T07:23:09.021Z,102487.09
2023-03-19T07:25:38.263Z,102509.75
2023-03-19T07:28:06.420Z,102517.75
2023-03-19T07:30:35.906Z,102538.19
2023-03-19T07:33:03.972Z,102549.72
2023-03-19T07:35:31.887Z,102538.31
2023-03-19T07:38:00.187Z,102531.88
2023-03-19T07:40:28.253Z,102534.22
2023-03-19T07:42:57.796Z,102508.19
2023-03-19T07:45:26.714Z,102483.16
2023-03-19T07:47:54.670Z,102491.63
2023-03-19T07:50:22.748Z,102478.56
2023-03-19T07:52:51.989Z,102447.34
2023-03-19T07:55:19.877Z,102422.13
2023-03-19T07:57:47.947Z,102384.41
2023-03-19T08:00:18.656Z,102375.00
2023-03-19T08:02:46.947Z,102338.09
2023-03-19T08:05:16.197Z,102308.97
2023-03-19T08:07:45.072Z,102288.97
2023-03-19T08:10:13.663Z,102243.00
2023-03-19T08:12:42.071Z,102184.56
2023-03-19T08:15:12.550Z,102146.59
2023-03-19T08:17:42.288Z,102084.44
2023-03-19T08:20:12.713Z,102029.16
2023-03-19T08:22:41.825Z,101978.97
2023-03-19T08:25:11.200Z,101934.59
2023-03-19T08:27:39.373Z,101899.84
2023-03-19T08:30:12.257Z,101853.19
2023-03-19T08:32:41.896Z,101791.53
2023-03-19T08:35:12.868Z,101720.88
2023-03-19T08:37:40.889Z,101635.13
2023-03-19T08:40:10.234Z,101583.81
2023-03-19T08:42:44.412Z,101535.56
2023-03-19T08:45:15.351Z,101441.97
2023-03-19T08:47:45.427Z,101343.22
2023-03-19T08:50:13.701Z,101263.41
2023-03-19T08:52:41.592Z,101177.03
2023-03-19T08:55:10.604Z,101079.94
2023-03-19T08:57:38.719Z,100998.28
2023-03-19T09:00:08.149Z,100935.31
2023-03-19T09:02:36.026Z,100890.63
2023-03-19T09:05:05.726Z,100875.78
2023-03-19T09:07:33.576Z,100847.44
2023-03-19T09:10:02.117Z,100817.22
2023-03-19T09:12:30.096Z,100762.53
2023-03-19T09:14:57.874Z,100744.91
2023-03-19T09:17:26.278Z,100727.78
2023-03-19T09:19:54.249Z,100709.03
2023-03-19T09:22:23.625Z,100702.22
2023-03-19T09:24:52.077Z,100698.88
2023-03-19T09:27:21.122Z,100691.84
2023-03-19T09:29:49.090Z,100699.19
2023-03-19T09:32:17.212Z,100702.34
2023-03-19T09:34:45.150Z,100723.88
2023-03-19T09:37:13.012Z,100733.97
2023-03-19T09:39:42.270Z,100747.38
2023-03-19T09:42:22.535Z,100767.09
2023-03-19T09:44:53.381Z,100785.72
2023-03-19T09:47:27.700Z,100781.06
2023-03-19T09:49:58.808Z,100786.72
2023-03-19T09:52:37.551Z,100791.25
2023-03-19T09:55:17.262Z,100805.00
2023-03-19T09:57:45.934Z,100807.25
2023-03-19T10:00:22.598Z,100822.75
2023-03-19T10:02:58.128Z,100831.22
2023-03-19T10:05:33.858Z,100843.19
2023-03-19T10:08:29.618Z,100845.81
2023-03-19T10:11:10.587Z,100885.03
2023-03-19T10:13:54.429Z,100906.03
2023-03-19T10:16:25.398Z,100914.69
2023-03-19T10:18:57.197Z,100925.09
2023-03-19T10:21:32.325Z,100937.22
2023-03-19T10:24:04.958Z,100961.81
2023-03-19T10:26:36.047Z,100975.13
2023-03-19T10:29:08.562Z,100977.94
2023-03-19T10:31:44.279Z,100990.59
2023-03-19T10:34:31.420Z,101005.03
2023-03-19T10:37:01.709Z,101015.97
2023-03-19T10:39:32.103Z,101044.47
2023-03-19T10:42:15.067Z,101087.03
2023-03-19T10:44:49.369Z,101159.97
2023-03-19T10:47:19.988Z,101211.78
2023-03-19T10:49:47.908Z,101247.03
2023-03-19T10:52:21.400Z,101285.31
2023-03-19T10:54:49.629Z,101316.63
2023-03-19T10:57:27.835Z,101359.97
2023-03-19T10:59:56.595Z,101389.09
2023-03-19T11:02:31.055Z,101410.09
2023-03-19T11:05:10.274Z,101440.00
2023-03-19T11:07:38.532Z,101459.44
2023-03-19T11:10:13.756Z,101484.22
2023-03-19T11:12:48.959Z,101527.44
2023-03-19T11:15:22.062Z,101550.66
2023-03-19T11:17:56.950Z,101578.34
2023-03-19T11:20:30.567Z,101622.31
2023-03-19T11:23:02.726Z,101650.06
2023-03-19T11:25:35.533Z,101709.56
2023-03-19T11:28:09.510Z,101724.84
2023-03-19T11:30:49.155Z,101723.38
2023-03-19T11:33:43.942Z,101685.13
2023-03-19T11:36:14.801Z,101651.75
2023-03-19T11:38:57.409Z,101593.94
2023-03-19T11:41:35.765Z,101550.78
2023-03-19T11:44:07.149Z,101525.53
2023-03-19T11:46:44.824Z,101529.81
2023-03-19T11:49:36.664Z,101534.34
2023-03-19T11:52:13.463Z,101519.59
2023-03-19T11:54:51.011Z,101475.13
2023-03-19T11:57:28.504Z,101440.09
2023-03-19T12:00:18.626Z,101385.06
2023-03-19T12:03:13.729Z,101319.16
2023-03-19T12:05:50.766Z,101259.56
2023-03-19T12:08:32.807Z,101229.56
2023-03-19T12:11:12.363Z,101206.84
2023-03-19T12:14:01.026Z,101178.94
2023-03-19T12:16:46.381Z,101155.44
2023-03-19T12:19:58.227Z,101099.88
2023-03-19T12:22:43.181Z,101076.44
2023-03-19T12:25:25.545Z,101041.59
2023-03-19T12:27:57.012Z,100986.13
2023-03-19T12:30:35.612Z,100919.69
2023-03-19T12:33:23.233Z,100860.34
2023-03-19T12:35:56.051Z,100819.28
2023-03-19T12:38:27.372Z,100804.50
2023-03-19T12:41:01.023Z,100788.53
2023-03-19T12:43:33.528Z,100805.09
2023-03-19T12:46:08.312Z,100820.31
2023-03-19T12:48:43.883Z,100832.66
2023-03-19T12:51:15.473Z,100888.28
2023-03-19T12:53:48.544Z,100897.44
2023-03-19T12:56:22.960Z,100955.69
2023-03-19T12:58:58.798Z,100988.59
2023-03-19T13:01:31.409Z,101015.63
2023-03-19T13:04:07.338Z,101075.09
2023-03-19T13:06:38.286Z,101091.38
2023-03-19T13:09:14.523Z,101127.34
2023-03-19T13:11:49.998Z,101139.81
2023-03-19T13:14:22.850Z,101151.84
2023-03-19T13:16:58.873Z,101156.19
2023-03-19T13:19:35.519Z,101173.25
2023-03-19T13:22:07.622Z,101179.75
2023-03-19T13:24:38.448Z,101176.94
2023-03-19T13:27:09.307Z,101182.38
2023-03-19T13:29:39.007Z,101183.66
2023-03-19T13:32:10.168Z,101176.47
2023-03-19T13:34:39.757Z,101183.94
2023-03-19T13:37:14.918Z,101188.66
2023-03-19T13:39:44.305Z,101192.16
2023-03-19T13:42:35.773Z,101189.31
2023-03-19T13:45:05.588Z,101179.44
2023-03-19T13:47:43.311Z,101195.41
2023-03-19T13:50:33.551Z,101191.88
2023-03-19T13:53:38.463Z,101197.03
2023-03-19T13:56:18.787Z,101195.38
2023-03-19T13:59:14.795Z,101188.44
2023-03-19T14:01:45.716Z,101194.31
2023-03-19T14:04:20.869Z,101191.88
2023-03-19T14:06:54.353Z,101194.28
2023-03-19T14:09:48.608Z,101192.44
2023-03-19T14:12:31.071Z,101196.66
2023-03-19T14:15:02.871Z,101195.38
2023-03-19T14:17:34.333Z,101194.50
2023-03-19T14:20:26.608Z,101203.06
2023-03-19T14:23:23.398Z,101194.28
2023-03-19T14:26:18.489Z,101201.19
2023-03-19T14:28:56.365Z,101210.66
2023-03-19T14:31:30.064Z,101206.38
2023-03-19T14:34:07.256Z,101208.56
2023-03-19T14:36:38.265Z,101212.03
2023-03-19T14:39:18.920Z,101213.38
2023-03-19T14:41:50.369Z,101213.16
2023-03-19T14:44:49.053Z,101225.78
2023-03-19T14:47:30.497Z,101229.00
2023-03-19T14:50:16.699Z,101232.78
2023-03-19T14:52:48.112Z,101232.69
2023-03-19T14:55:18.735Z,101234.84
2023-03-19T14:57:46.782Z,101230.59
2023-03-19T15:00:17.328Z,101237.97
2023-03-19T15:02:48.301Z,101248.22
2023-03-19T15:05:22.967Z,101249.78
2023-03-19T15:07:54.103Z,101255.63
2023-03-19T15:10:26.062Z,101250.78
2023-03-19T15:13:22.258Z,101265.34
2023-03-19T15:16:02.815Z,101261.97
2023-03-19T15:18:31.232Z,101258.16
2023-03-19T15:20:59.171Z,101260.44
2023-03-19T15:23:29.232Z,101259.88
2023-03-19T15:26:01.377Z,101257.81
2023-03-19T15:28:32.284Z,101262.81
2023-03-19T15:31:12.231Z,101265.34
2023-03-19T15:33:46.737Z,101276.47
2023-03-19T15:36:18.959Z,101261.81
2023-03-19T15:38:51.374Z,101264.53
2023-03-19T15:41:21.993Z,101267.88
2023-03-19T15:43:50.435Z,101268.72
2023-03-19T15:46:22.648Z,101272.66
2023-03-19T15:48:55.004Z,101271.81
2023-03-19T15:51:26.544Z,101284.28
2023-03-19T15:53:55.340Z,101283.81
2023-03-19T15:56:26.527Z,101288.88
2023-03-19T15:58:58.400Z,101299.31
2023-03-19T16:01:28.431Z,101306.63
2023-03-19T16:04:00.743Z,101312.41
2023-03-19T16:06:31.546Z,101313.75
2023-03-19T16:09:18.307Z,101323.72
2023-03-19T16:11:48.540Z,101324.78
2023-03-19T16:14:25.249Z,101328.84
2023-03-19T16:17:00.161Z,101332.25
2023-03-19T16:19:35.968Z,101321.53
2023-03-19T16:22:12.572Z,101328.31
2023-03-19T16:24:43.254Z,101335.81
2023-03-19T16:27:16.099Z,101334.63
2023-03-19T16:29:45.628Z,101337.56
2023-03-19T16:32:21.327Z,101345.94
2023-03-19T16:34:52.308Z,101346.72
2023-03-19T16:37:34.708Z,101341.88
2023-03-19T16:40:04.453Z,101343.41
2023-03-19T16:42:41.367Z,101345.84
2023-03-19T16:45:21.526Z,101354.66
2023-03-19T16:47:51.612Z,101367.16
2023-03-19T16:50:21.842Z,101359.78
2023-03-19T16:52:50.603Z,101379.66
2023-03-19T16:55:22.830Z,101375.78
2023-03-19T16:57:57.380Z,101378.13
2023-03-19T17:00:27.264Z,101389.53
2023-03-19T17:02:56.940Z,101388.75
2023-03-19T17:05:26.069Z,101394.97
2023-03-19T17:07:55.464Z,101398.31
2023-03-19T17:10:25.843Z,101391.97
2023-03-19T17:12:56.733Z,101397.06
2023-03-19T17:15:27.613Z,101402.50
2023-03-19T17:17:55.475Z,101411.63
2023-03-19T17:20:28.627Z,101417.03
2023-03-19T17:22:56.533Z,101426.13
2023-03-19T17:25:25.567Z,101426.81
2023-03-19T17:27:53.329Z,101426.69
2023-03-19T17:30:22.657Z,101419.09
2023-03-19T17:32:51.966Z,101415.75
2023-03-19T17:35:21.850Z,101432.78
2023-03-19T17:37:51.552Z,101427.22
2023-03-19T17:40:22.780Z,101423.19
2023-03-19T17:42:51.729Z,101433.34
2023-03-19T17:45:25.253Z,101438.38
2023-03-19T17:47:56.316Z,101439.53
2023-03-19T17:50:26.688Z,101437.81
2023-03-19T17:52:54.742Z,101444.16
2023-03-19T17:55:24.506Z,101452.00
2023-03-19T17:57:52.348Z,101446.59
2023-03-19T18:00:24.235Z,101452.16
2023-03-19T18:02:54.097Z,101454.50
2023-03-19T18:05:24.537Z,101458.88
2023-03-19T18:07:55.367Z,101458.88
2023-03-19T18:10:26.576Z,101466.59
2023-03-19T18:12:54.898Z,101474.63
2023-03-19T18:15:24.859Z,101477.69
2023-03-19T18:17:55.876Z,101482.72
2023-03-19T18:20:27.506Z,101485.72
2023-03-19T18:22:55.731Z,101482.44
2023-03-19T18:25:26.307Z,101483.88
2023-03-19T18:27:55.213Z,101495.38
2023-03-19T18:30:25.448Z,101493.13
2023-03-19T18:32:57.597Z,101498.25
2023-03-19T18:35:29.107Z,101503.25
2023-03-19T18:37:57.706Z,101506.06
2023-03-19T18:40:28.170Z,101510.78
2023-03-19T18:42:56.428Z,101519.75
2023-03-19T18:45:28.883Z,101528.59
2023-03-19T18:47:57.934Z,101523.63
2023-03-19T18:50:28.583Z,101527.28
2023-03-19T18:52:57.538Z,101546.16
2023-03-19T18:55:29.261Z,101542.25
2023-03-19T18:57:59.876Z,101527.53
2023-03-19T19:00:32.379Z,101530.91
2023-03-19T19:03:02.497Z,101536.47
2023-03-19T19:05:33.038Z,101542.50
2023-03-19T19:08:03.233Z,101542.47
2023-03-19T19:10:34.638Z,101550.47
2023-03-19T19:13:03.658Z,101549.81
2023-03-19T19:15:35.678Z,101555.00
2023-03-19T19:18:14.597Z,101565.94
2023-03-19T19:20:42.554Z,101569.22
2023-03-19T19:23:11.019Z,101569.53
2023-03-19T19:25:39.304Z,101572.50
2023-03-19T19:28:14.959Z,101566.84
2023-03-19T19:30:45.589Z,101573.03
2023-03-19T19:33:17.888Z,101580.28
2023-03-19T19:35:46.296Z,101593.94
2023-03-19T19:38:14.229Z,101595.78
2023-03-19T19:40:44.070Z,101604.41
2023-03-19T19:43:18.227Z,101600.72
2023-03-19T19:45:49.875Z,101601.94
2023-03-19T19:48:19.824Z,101611.47
2023-03-19T19:50:48.889Z,101606.31
2023-03-19T19:53:16.988Z,101608.25
2023-03-19T19:55:45.660Z,101611.41
2023-03-19T19:58:19.791Z,101616.47
2023-03-19T20:01:02.324Z,101614.69
2023-03-19T20:03:33.174Z,101625.00
2023-03-19T20:06:02.721Z,101636.75
2023-03-19T20:08:30.532Z,101628.16
2023-03-19T20:10:58.603Z,101641.56
2023-03-19T20:13:29.449Z,101647.56
2023-03-19T20:16:00.491Z,101648.78
2023-03-19T20:18:31.828Z,101651.06
2023-03-19T20:21:01.077Z,101657.47
2023-03-19T20:23:29.036Z,101661.59
2023-03-19T20:25:58.188Z,101675.78
2023-03-19T20:28:30.563Z,101683.19
2023-03-19T20:30:59.984Z,101694.00
2023-03-19T20:33:28.221Z,101691.44
2023-03-19T20:35:56.247Z,101694.81
2023-03-19T20:38:24.654Z,101693.50
2023-03-19T20:40:54.779Z,101696.56
2023-03-19T20:43:28.299Z,101698.19
2023-03-19T20:45:58.122Z,101695.41
2023-03-19T20:48:28.910Z,101699.16
2023-03-19T20:50:57.408Z,101706.69
2023-03-19T20:53:25.695Z,101702.78
2023-03-19T20:55:53.943Z,101710.75
2023-03-19T20:58:27.383Z,101701.28
2023-03-19T21:00:56.367Z,101720.19
2023-03-19T21:03:26.057Z,101720.03
2023-03-19T21:05:58.077Z,101718.56
2023-03-19T21:08:33.481Z,101726.53
2023-03-19T21:11:01.962Z,101724.53
2023-03-19T21:13:30.321Z,101724.91
2023-03-19T21:15:59.656Z,101722.53
2023-03-19T21:18:27.553Z,101730.34
2023-03-19T21:20:58.544Z,101731.16
2023-03-19T21:23:31.465Z,101734.44
2023-03-19T21:26:00.530Z,101737.06
2023-03-19T21:28:32.780Z,101736.25
2023-03-19T21:31:01.168Z,101739.53
2023-03-19T21:33:30.671Z,101741.22
2023-03-19T21:36:02.100Z,101746.97
2023-03-19T21:38:32.284Z,101751.03
2023-03-19T21:41:02.863Z,101762.31
2023-03-19T21:43:34.902Z,101769.47
2023-03-19T21:46:22.848Z,101779.69
2023-03-19T21:48:52.221Z,101796.88
2023-03-19T21:51:21.889Z,101809.00
2023-03-19T21:53:50.335Z,101806.59
2023-03-19T21:56:23.233Z,101819.59
2023-03-19T21:58:52.461Z,101827.75
2023-03-19T22:01:23.618Z,101834.78
2023-03-19T22:03:52.252Z,101836.66
2023-03-19T22:06:22.123Z,101849.16
2023-03-19T22:08:51.133Z,101844.72
2023-03-19T22:11:23.606Z,101845.91
2023-03-19T22:13:51.600Z,101858.59
2023-03-19T22:16:21.403Z,101853.53
2023-03-19T22:18:49.981Z,101862.94
2023-03-19T22:21:19.702Z,101854.97
2023-03-19T22:23:49.158Z,101854.34
2023-03-19T22:26:29.874Z,101856.63
2023-03-19T22:29:00.335Z,101856.50
2023-03-19T22:31:28.932Z,101857.97
2023-03-19T22:33:57.170Z,101861.44
2023-03-19T22:36:25.064Z,101852.00
2023-03-19T22:38:54.468Z,101855.78
2023-03-19T22:41:28.404Z,101858.69
2023-03-19T22:43:58.264Z,101863.69
2023-03-19T22:46:27.690Z,101864.84
2023-03-19T22:48:56.662Z,101864.78
2023-03-19T22:51:27.286Z,101862.59
2023-03-19T22:53:56.786Z,101856.94
2023-03-19T22:56:24.619Z,101861.97
2023-03-19T22:58:53.088Z,101862.63
2023-03-19T23:01:31.516Z,101859.00
2023-03-19T23:04:15.330Z,101862.34
2023-03-19T23:06:43.331Z,101861.88
2023-03-19T23:09:15.743Z,101858.13
2023-03-19T23:11:43.647Z,101863.03
2023-03-19T23:14:25.923Z,101876.94
2023-03-19T23:19:28.025Z,101878.44
2023-03-19T23:21:55.952Z,101880.06
2023-03-19T23:24:26.044Z,101877.56
2023-03-19T23:26:56.026Z,101886.72
2023-03-19T23:29:27.783Z,101888.09
2023-03-19T23:31:55.808Z,101893.06
2023-03-19T23:34:23.671Z,101891.78
2023-03-19T23:36:52.102Z,101882.84
2023-03-19T23:39:20.999Z,101889.22
2023-03-19T23:41:55.530Z,101887.31
2023-03-19T23:44:23.508Z,101886.91
2023-03-19T23:46:52.623Z,101896.47
2023-03-19T23:49:28.745Z,101895.00
2023-03-19T23:51:57.423Z,101903.03
2023-03-19T23:54:31.234Z,101904.47
2023-03-19T23:57:04.194Z,101900.31
2023-03-19T23:59:35.587Z,101902.00
